sensor_id;sensor_type;location;lat;lon;timestamp;P1;durP1;ratioP1;P2;durP2;ratioP2
4422;SDS011;2224;49.814;8.650;2023-09-18T00:00:13;4.70;;;3.37;;
4422;SDS011;2224;49.814;8.650;2023-09-18T00:02:39;3.80;;;3.33;;
4422;SDS011;2224;49.814;8.650;2023-09-18T00:05:04;3.63;;;2.70;;
4422;SDS011;2224;49.814;8.650;2023-09-18T00:07:30;4.47;;;3.47;;
4422;SDS011;2224;49.814;8.650;2023-09-18T00:09:55;3.87;;;3.47;;
4422;SDS011;2224;49.814;8.650;2023-09-18T00:12:21;5.37;;;3.53;;
4422;SDS011;2224;49.814;8.650;2023-09-18T00:14:49;4.07;;;3.43;;
4422;SDS011;2224;49.814;8.650;2023-09-18T00:17:15;3.93;;;3.50;;
4422;SDS011;2224;49.814;8.650;2023-09-18T00:19:41;4.00;;;3.30;;
4422;SDS011;2224;49.814;8.650;2023-09-18T00:22:07;4.00;;;3.60;;
4422;SDS011;2224;49.814;8.650;2023-09-18T00:24:33;3.67;;;3.37;;
4422;SDS011;2224;49.814;8.650;2023-09-18T00:26:58;5.13;;;3.93;;
4422;SDS011;2224;49.814;8.650;2023-09-18T00:29:24;4.60;;;4.13;;
4422;SDS011;2224;49.814;8.650;2023-09-18T00:31:49;5.07;;;3.57;;
4422;SDS011;2224;49.814;8.650;2023-09-18T00:34:14;4.67;;;4.27;;
4422;SDS011;2224;49.814;8.650;2023-09-18T00:36:40;5.93;;;3.77;;
4422;SDS011;2224;49.814;8.650;2023-09-18T00:39:06;5.53;;;3.43;;
4422;SDS011;2224;49.814;8.650;2023-09-18T00:41:31;5.07;;;3.40;;
4422;SDS011;2224;49.814;8.650;2023-09-18T00:43:56;6.50;;;4.00;;
4422;SDS011;2224;49.814;8.650;2023-09-18T00:46:22;4.63;;;3.27;;
4422;SDS011;2224;49.814;8.650;2023-09-18T00:48:47;5.53;;;3.73;;
4422;SDS011;2224;49.814;8.650;2023-09-18T00:51:13;4.33;;;3.27;;
4422;SDS011;2224;49.814;8.650;2023-09-18T00:53:41;4.23;;;3.80;;
4422;SDS011;2224;49.814;8.650;2023-09-18T00:56:08;4.40;;;3.07;;
4422;SDS011;2224;49.814;8.650;2023-09-18T00:58:35;5.70;;;4.00;;
4422;SDS011;2224;49.814;8.650;2023-09-18T01:01:00;5.70;;;4.37;;
4422;SDS011;2224;49.814;8.650;2023-09-18T01:03:25;7.30;;;4.37;;
4422;SDS011;2224;49.814;8.650;2023-09-18T01:05:51;4.80;;;3.80;;
4422;SDS011;2224;49.814;8.650;2023-09-18T01:08:16;4.90;;;4.07;;
4422;SDS011;2224;49.814;8.650;2023-09-18T01:11:02;5.60;;;3.90;;
4422;SDS011;2224;49.814;8.650;2023-09-18T01:13:37;4.27;;;3.60;;
4422;SDS011;2224;49.814;8.650;2023-09-18T01:16:08;4.33;;;3.93;;
4422;SDS011;2224;49.814;8.650;2023-09-18T01:18:38;4.10;;;3.77;;
4422;SDS011;2224;49.814;8.650;2023-09-18T01:21:13;5.50;;;4.03;;
4422;SDS011;2224;49.814;8.650;2023-09-18T01:23:38;5.67;;;3.70;;
4422;SDS011;2224;49.814;8.650;2023-09-18T01:26:04;5.00;;;3.50;;
4422;SDS011;2224;49.814;8.650;2023-09-18T01:28:30;3.83;;;3.30;;
4422;SDS011;2224;49.814;8.650;2023-09-18T01:30:56;4.30;;;3.73;;
4422;SDS011;2224;49.814;8.650;2023-09-18T01:33:21;5.13;;;3.70;;
4422;SDS011;2224;49.814;8.650;2023-09-18T01:35:47;5.50;;;3.70;;
4422;SDS011;2224;49.814;8.650;2023-09-18T01:38:13;3.93;;;3.50;;
4422;SDS011;2224;49.814;8.650;2023-09-18T01:40:38;4.20;;;3.70;;
4422;SDS011;2224;49.814;8.650;2023-09-18T01:43:04;3.80;;;3.50;;
4422;SDS011;2224;49.814;8.650;2023-09-18T01:45:30;6.80;;;4.10;;
4422;SDS011;2224;49.814;8.650;2023-09-18T01:47:55;5.63;;;3.90;;
4422;SDS011;2224;49.814;8.650;2023-09-18T01:50:21;5.87;;;3.77;;
4422;SDS011;2224;49.814;8.650;2023-09-18T01:52:46;3.63;;;3.23;;
4422;SDS011;2224;49.814;8.650;2023-09-18T01:55:11;6.00;;;4.17;;
4422;SDS011;2224;49.814;8.650;2023-09-18T01:57:37;5.27;;;3.80;;
4422;SDS011;2224;49.814;8.650;2023-09-18T02:00:02;8.13;;;4.90;;
4422;SDS011;2224;49.814;8.650;2023-09-18T02:02:32;6.40;;;5.37;;
4422;SDS011;2224;49.814;8.650;2023-09-18T02:04:58;6.60;;;5.07;;
4422;SDS011;2224;49.814;8.650;2023-09-18T02:07:23;5.93;;;5.27;;
4422;SDS011;2224;49.814;8.650;2023-09-18T02:09:48;5.90;;;4.47;;
4422;SDS011;2224;49.814;8.650;2023-09-18T02:12:14;7.60;;;5.40;;
4422;SDS011;2224;49.814;8.650;2023-09-18T02:14:43;16.53;;;7.53;;
4422;SDS011;2224;49.814;8.650;2023-09-18T02:17:09;10.77;;;9.00;;
4422;SDS011;2224;49.814;8.650;2023-09-18T02:19:34;11.73;;;8.20;;
4422;SDS011;2224;49.814;8.650;2023-09-18T02:22:00;10.50;;;8.00;;
4422;SDS011;2224;49.814;8.650;2023-09-18T02:24:25;12.83;;;8.50;;
4422;SDS011;2224;49.814;8.650;2023-09-18T02:26:51;12.20;;;8.20;;
4422;SDS011;2224;49.814;8.650;2023-09-18T02:29:16;10.10;;;8.13;;
4422;SDS011;2224;49.814;8.650;2023-09-18T02:31:41;10.73;;;7.47;;
4422;SDS011;2224;49.814;8.650;2023-09-18T02:34:07;9.87;;;7.87;;
4422;SDS011;2224;49.814;8.650;2023-09-18T02:36:33;9.53;;;6.70;;
4422;SDS011;2224;49.814;8.650;2023-09-18T02:38:59;9.03;;;6.37;;
4422;SDS011;2224;49.814;8.650;2023-09-18T02:41:24;8.00;;;6.23;;
4422;SDS011;2224;49.814;8.650;2023-09-18T02:43:50;12.00;;;5.90;;
4422;SDS011;2224;49.814;8.650;2023-09-18T02:46:15;7.13;;;5.07;;
4422;SDS011;2224;49.814;8.650;2023-09-18T02:48:40;9.60;;;6.20;;
4422;SDS011;2224;49.814;8.650;2023-09-18T02:51:05;8.97;;;6.07;;
4422;SDS011;2224;49.814;8.650;2023-09-18T02:53:31;6.93;;;5.40;;
4422;SDS011;2224;49.814;8.650;2023-09-18T02:55:57;10.63;;;6.90;;
4422;SDS011;2224;49.814;8.650;2023-09-18T02:58:23;8.70;;;6.07;;
4422;SDS011;2224;49.814;8.650;2023-09-18T03:00:51;9.07;;;6.13;;
4422;SDS011;2224;49.814;8.650;2023-09-18T03:03:16;9.83;;;5.90;;
4422;SDS011;2224;49.814;8.650;2023-09-18T03:05:42;11.13;;;6.50;;
4422;SDS011;2224;49.814;8.650;2023-09-18T03:08:09;6.13;;;5.53;;
4422;SDS011;2224;49.814;8.650;2023-09-18T03:10:36;9.13;;;5.60;;
4422;SDS011;2224;49.814;8.650;2023-09-18T03:13:04;9.37;;;6.17;;
4422;SDS011;2224;49.814;8.650;2023-09-18T03:15:30;9.97;;;6.50;;
4422;SDS011;2224;49.814;8.650;2023-09-18T03:17:56;10.87;;;6.83;;
4422;SDS011;2224;49.814;8.650;2023-09-18T03:20:23;9.57;;;5.83;;
4422;SDS011;2224;49.814;8.650;2023-09-18T03:22:52;13.60;;;8.10;;
4422;SDS011;2224;49.814;8.650;2023-09-18T03:25:18;11.27;;;5.63;;
4422;SDS011;2224;49.814;8.650;2023-09-18T03:27:44;7.57;;;5.47;;
4422;SDS011;2224;49.814;8.650;2023-09-18T03:30:09;11.43;;;5.90;;
4422;SDS011;2224;49.814;8.650;2023-09-18T03:32:37;11.20;;;5.40;;
4422;SDS011;2224;49.814;8.650;2023-09-18T03:35:03;11.03;;;5.60;;
4422;SDS011;2224;49.814;8.650;2023-09-18T03:37:28;7.00;;;4.63;;
4422;SDS011;2224;49.814;8.650;2023-09-18T03:39:54;7.17;;;4.30;;
4422;SDS011;2224;49.814;8.650;2023-09-18T03:42:19;7.27;;;5.30;;
4422;SDS011;2224;49.814;8.650;2023-09-18T03:44:44;14.60;;;5.37;;
4422;SDS011;2224;49.814;8.650;2023-09-18T03:47:10;11.30;;;4.83;;
4422;SDS011;2224;49.814;8.650;2023-09-18T03:49:35;6.97;;;4.73;;
4422;SDS011;2224;49.814;8.650;2023-09-18T03:52:00;11.87;;;6.40;;
4422;SDS011;2224;49.814;8.650;2023-09-18T03:54:26;8.57;;;5.17;;
4422;SDS011;2224;49.814;8.650;2023-09-18T03:56:51;9.57;;;4.70;;
4422;SDS011;2224;49.814;8.650;2023-09-18T03:59:16;8.77;;;4.97;;
4422;SDS011;2224;49.814;8.650;2023-09-18T04:01:41;8.17;;;5.10;;
4422;SDS011;2224;49.814;8.650;2023-09-18T04:04:07;10.33;;;5.77;;
4422;SDS011;2224;49.814;8.650;2023-09-18T04:06:36;11.07;;;4.87;;
4422;SDS011;2224;49.814;8.650;2023-09-18T04:09:05;9.80;;;5.57;;
4422;SDS011;2224;49.814;8.650;2023-09-18T04:11:30;8.97;;;5.53;;
4422;SDS011;2224;49.814;8.650;2023-09-18T04:13:57;7.80;;;5.30;;
4422;SDS011;2224;49.814;8.650;2023-09-18T04:16:26;10.60;;;5.30;;
4422;SDS011;2224;49.814;8.650;2023-09-18T04:18:52;9.50;;;5.03;;
4422;SDS011;2224;49.814;8.650;2023-09-18T04:21:18;11.13;;;4.93;;
4422;SDS011;2224;49.814;8.650;2023-09-18T04:23:43;10.83;;;4.43;;
4422;SDS011;2224;49.814;8.650;2023-09-18T04:26:09;9.87;;;5.20;;
4422;SDS011;2224;49.814;8.650;2023-09-18T04:28:35;8.30;;;4.17;;
4422;SDS011;2224;49.814;8.650;2023-09-18T04:31:01;10.03;;;4.30;;
4422;SDS011;2224;49.814;8.650;2023-09-18T04:33:26;6.97;;;4.53;;
4422;SDS011;2224;49.814;8.650;2023-09-18T04:35:53;9.77;;;4.77;;
4422;SDS011;2224;49.814;8.650;2023-09-18T04:38:19;12.13;;;5.00;;
4422;SDS011;2224;49.814;8.650;2023-09-18T04:40:44;9.90;;;5.10;;
4422;SDS011;2224;49.814;8.650;2023-09-18T04:43:10;8.13;;;5.00;;
4422;SDS011;2224;49.814;8.650;2023-09-18T04:45:36;7.20;;;4.13;;
4422;SDS011;2224;49.814;8.650;2023-09-18T04:48:01;7.67;;;4.07;;
4422;SDS011;2224;49.814;8.650;2023-09-18T04:50:27;8.87;;;4.13;;
4422;SDS011;2224;49.814;8.650;2023-09-18T04:52:53;11.57;;;4.50;;
4422;SDS011;2224;49.814;8.650;2023-09-18T04:55:20;8.17;;;3.60;;
4422;SDS011;2224;49.814;8.650;2023-09-18T04:57:46;12.37;;;4.30;;
4422;SDS011;2224;49.814;8.650;2023-09-18T05:00:11;10.73;;;4.30;;
4422;SDS011;2224;49.814;8.650;2023-09-18T05:02:39;12.37;;;3.93;;
4422;SDS011;2224;49.814;8.650;2023-09-18T05:05:04;10.57;;;4.10;;
4422;SDS011;2224;49.814;8.650;2023-09-18T05:07:30;11.03;;;4.70;;
4422;SDS011;2224;49.814;8.650;2023-09-18T05:09:57;10.73;;;5.40;;
4422;SDS011;2224;49.814;8.650;2023-09-18T05:12:23;10.83;;;3.90;;
4422;SDS011;2224;49.814;8.650;2023-09-18T05:14:48;9.03;;;4.10;;
4422;SDS011;2224;49.814;8.650;2023-09-18T05:17:14;14.77;;;3.97;;
4422;SDS011;2224;49.814;8.650;2023-09-18T05:19:40;7.87;;;3.90;;
4422;SDS011;2224;49.814;8.650;2023-09-18T05:22:06;8.27;;;3.60;;
4422;SDS011;2224;49.814;8.650;2023-09-18T05:24:32;11.53;;;4.23;;
4422;SDS011;2224;49.814;8.650;2023-09-18T05:26:58;10.37;;;4.30;;
4422;SDS011;2224;49.814;8.650;2023-09-18T05:29:24;9.13;;;4.40;;
4422;SDS011;2224;49.814;8.650;2023-09-18T05:31:49;9.93;;;4.63;;
4422;SDS011;2224;49.814;8.650;2023-09-18T05:34:14;10.20;;;5.10;;
4422;SDS011;2224;49.814;8.650;2023-09-18T05:36:40;8.60;;;4.10;;
4422;SDS011;2224;49.814;8.650;2023-09-18T05:39:05;10.30;;;4.10;;
4422;SDS011;2224;49.814;8.650;2023-09-18T05:41:34;10.73;;;4.40;;
4422;SDS011;2224;49.814;8.650;2023-09-18T05:44:00;8.20;;;4.27;;
4422;SDS011;2224;49.814;8.650;2023-09-18T05:46:28;12.87;;;4.70;;
4422;SDS011;2224;49.814;8.650;2023-09-18T05:48:54;10.07;;;3.80;;
4422;SDS011;2224;49.814;8.650;2023-09-18T05:51:21;6.20;;;3.80;;
4422;SDS011;2224;49.814;8.650;2023-09-18T05:53:47;12.13;;;5.83;;
4422;SDS011;2224;49.814;8.650;2023-09-18T05:56:12;10.07;;;3.90;;
4422;SDS011;2224;49.814;8.650;2023-09-18T05:58:39;10.40;;;3.50;;
4422;SDS011;2224;49.814;8.650;2023-09-18T06:01:04;10.73;;;4.23;;
4422;SDS011;2224;49.814;8.650;2023-09-18T06:03:30;8.80;;;4.60;;
4422;SDS011;2224;49.814;8.650;2023-09-18T06:06:00;10.00;;;4.03;;
4422;SDS011;2224;49.814;8.650;2023-09-18T06:08:26;7.20;;;4.00;;
4422;SDS011;2224;49.814;8.650;2023-09-18T06:10:51;6.93;;;3.97;;
4422;SDS011;2224;49.814;8.650;2023-09-18T06:13:17;8.00;;;3.87;;
4422;SDS011;2224;49.814;8.650;2023-09-18T06:15:42;11.20;;;3.97;;
4422;SDS011;2224;49.814;8.650;2023-09-18T06:18:07;7.20;;;4.17;;
4422;SDS011;2224;49.814;8.650;2023-09-18T06:20:33;12.03;;;3.83;;
4422;SDS011;2224;49.814;8.650;2023-09-18T06:22:58;9.30;;;3.87;;
4422;SDS011;2224;49.814;8.650;2023-09-18T06:25:24;5.50;;;3.70;;
4422;SDS011;2224;49.814;8.650;2023-09-18T06:27:49;7.23;;;3.80;;
4422;SDS011;2224;49.814;8.650;2023-09-18T06:30:14;7.30;;;3.50;;
4422;SDS011;2224;49.814;8.650;2023-09-18T06:32:40;6.93;;;3.40;;
4422;SDS011;2224;49.814;8.650;2023-09-18T06:35:05;7.90;;;3.30;;
4422;SDS011;2224;49.814;8.650;2023-09-18T06:37:31;11.47;;;3.80;;
4422;SDS011;2224;49.814;8.650;2023-09-18T06:39:56;8.17;;;3.70;;
4422;SDS011;2224;49.814;8.650;2023-09-18T06:42:22;5.67;;;3.43;;
4422;SDS011;2224;49.814;8.650;2023-09-18T06:44:47;7.10;;;3.63;;
4422;SDS011;2224;49.814;8.650;2023-09-18T06:47:12;9.10;;;3.57;;
4422;SDS011;2224;49.814;8.650;2023-09-18T06:49:39;7.03;;;4.00;;
4422;SDS011;2224;49.814;8.650;2023-09-18T06:52:06;7.87;;;3.57;;
4422;SDS011;2224;49.814;8.650;2023-09-18T06:54:32;9.83;;;3.90;;
4422;SDS011;2224;49.814;8.650;2023-09-18T06:56:57;6.70;;;3.37;;
4422;SDS011;2224;49.814;8.650;2023-09-18T06:59:22;8.43;;;3.70;;
4422;SDS011;2224;49.814;8.650;2023-09-18T07:01:48;5.77;;;3.83;;
4422;SDS011;2224;49.814;8.650;2023-09-18T07:04:13;4.87;;;2.97;;
4422;SDS011;2224;49.814;8.650;2023-09-18T07:06:39;6.13;;;3.70;;
4422;SDS011;2224;49.814;8.650;2023-09-18T07:09:04;4.43;;;3.33;;
4422;SDS011;2224;49.814;8.650;2023-09-18T07:11:32;7.30;;;4.10;;
4422;SDS011;2224;49.814;8.650;2023-09-18T07:13:58;6.70;;;3.40;;
4422;SDS011;2224;49.814;8.650;2023-09-18T07:16:24;8.60;;;3.70;;
4422;SDS011;2224;49.814;8.650;2023-09-18T07:18:49;7.00;;;3.50;;
4422;SDS011;2224;49.814;8.650;2023-09-18T07:21:15;8.30;;;4.23;;
4422;SDS011;2224;49.814;8.650;2023-09-18T07:23:40;7.73;;;3.23;;
4422;SDS011;2224;49.814;8.650;2023-09-18T07:26:05;10.23;;;3.40;;
4422;SDS011;2224;49.814;8.650;2023-09-18T07:28:31;6.00;;;3.57;;
4422;SDS011;2224;49.814;8.650;2023-09-18T07:30:56;9.50;;;3.77;;
4422;SDS011;2224;49.814;8.650;2023-09-18T07:33:22;8.37;;;3.70;;
4422;SDS011;2224;49.814;8.650;2023-09-18T07:35:47;7.60;;;3.40;;
4422;SDS011;2224;49.814;8.650;2023-09-18T07:38:13;7.87;;;3.50;;
4422;SDS011;2224;49.814;8.650;2023-09-18T07:40:38;9.60;;;3.60;;
4422;SDS011;2224;49.814;8.650;2023-09-18T07:43:04;10.67;;;3.77;;
4422;SDS011;2224;49.814;8.650;2023-09-18T07:45:29;9.50;;;3.60;;
4422;SDS011;2224;49.814;8.650;2023-09-18T07:47:55;7.57;;;3.10;;
4422;SDS011;2224;49.814;8.650;2023-09-18T07:50:20;5.00;;;3.07;;
4422;SDS011;2224;49.814;8.650;2023-09-18T07:52:45;8.00;;;3.60;;
4422;SDS011;2224;49.814;8.650;2023-09-18T07:55:11;5.90;;;3.30;;
4422;SDS011;2224;49.814;8.650;2023-09-18T07:57:36;9.43;;;3.33;;
4422;SDS011;2224;49.814;8.650;2023-09-18T08:00:02;7.07;;;3.50;;
4422;SDS011;2224;49.814;8.650;2023-09-18T08:02:32;7.57;;;3.57;;
4422;SDS011;2224;49.814;8.650;2023-09-18T08:04:59;7.40;;;2.80;;
4422;SDS011;2224;49.814;8.650;2023-09-18T08:07:25;6.60;;;3.30;;
4422;SDS011;2224;49.814;8.650;2023-09-18T08:09:50;7.47;;;3.00;;
4422;SDS011;2224;49.814;8.650;2023-09-18T08:12:16;3.50;;;2.47;;
4422;SDS011;2224;49.814;8.650;2023-09-18T08:14:41;9.27;;;3.47;;
4422;SDS011;2224;49.814;8.650;2023-09-18T08:17:07;5.50;;;2.67;;
4422;SDS011;2224;49.814;8.650;2023-09-18T08:19:32;7.43;;;3.33;;
4422;SDS011;2224;49.814;8.650;2023-09-18T08:21:58;3.73;;;2.70;;
4422;SDS011;2224;49.814;8.650;2023-09-18T08:24:24;6.13;;;2.40;;
4422;SDS011;2224;49.814;8.650;2023-09-18T08:26:50;4.50;;;2.20;;
4422;SDS011;2224;49.814;8.650;2023-09-18T08:29:15;7.43;;;2.10;;
4422;SDS011;2224;49.814;8.650;2023-09-18T08:31:41;2.90;;;2.33;;
4422;SDS011;2224;49.814;8.650;2023-09-18T08:34:06;3.80;;;2.03;;
4422;SDS011;2224;49.814;8.650;2023-09-18T08:36:32;3.70;;;2.17;;
4422;SDS011;2224;49.814;8.650;2023-09-18T08:38:57;4.13;;;2.57;;
4422;SDS011;2224;49.814;8.650;2023-09-18T08:41:23;5.03;;;2.60;;
4422;SDS011;2224;49.814;8.650;2023-09-18T08:43:51;4.13;;;2.20;;
4422;SDS011;2224;49.814;8.650;2023-09-18T08:46:17;4.37;;;2.53;;
4422;SDS011;2224;49.814;8.650;2023-09-18T08:48:44;8.00;;;1.87;;
4422;SDS011;2224;49.814;8.650;2023-09-18T08:51:10;3.43;;;1.83;;
4422;SDS011;2224;49.814;8.650;2023-09-18T08:53:35;5.53;;;2.27;;
4422;SDS011;2224;49.814;8.650;2023-09-18T08:56:02;3.63;;;2.00;;
4422;SDS011;2224;49.814;8.650;2023-09-18T08:58:32;5.13;;;1.90;;
4422;SDS011;2224;49.814;8.650;2023-09-18T09:01:00;6.80;;;2.30;;
4422;SDS011;2224;49.814;8.650;2023-09-18T09:03:28;5.27;;;2.07;;
4422;SDS011;2224;49.814;8.650;2023-09-18T09:05:54;5.53;;;2.00;;
4422;SDS011;2224;49.814;8.650;2023-09-18T09:08:19;6.57;;;1.77;;
4422;SDS011;2224;49.814;8.650;2023-09-18T09:10:46;5.33;;;3.30;;
4422;SDS011;2224;49.814;8.650;2023-09-18T09:13:11;2.40;;;2.17;;
4422;SDS011;2224;49.814;8.650;2023-09-18T09:15:45;7.00;;;2.53;;
4422;SDS011;2224;49.814;8.650;2023-09-18T09:18:12;7.10;;;2.07;;
4422;SDS011;2224;49.814;8.650;2023-09-18T09:20:40;5.57;;;3.93;;
4422;SDS011;2224;49.814;8.650;2023-09-18T09:23:09;5.83;;;1.80;;
4422;SDS011;2224;49.814;8.650;2023-09-18T09:25:35;4.40;;;1.90;;
4422;SDS011;2224;49.814;8.650;2023-09-18T09:28:04;3.70;;;2.10;;
4422;SDS011;2224;49.814;8.650;2023-09-18T09:30:31;5.70;;;1.90;;
4422;SDS011;2224;49.814;8.650;2023-09-18T09:32:58;6.90;;;2.20;;
4422;SDS011;2224;49.814;8.650;2023-09-18T09:35:28;5.70;;;2.37;;
4422;SDS011;2224;49.814;8.650;2023-09-18T09:37:58;4.07;;;2.30;;
4422;SDS011;2224;49.814;8.650;2023-09-18T09:40:29;3.93;;;1.77;;
4422;SDS011;2224;49.814;8.650;2023-09-18T09:42:56;4.70;;;2.03;;
4422;SDS011;2224;49.814;8.650;2023-09-18T09:45:32;7.20;;;2.00;;
4422;SDS011;2224;49.814;8.650;2023-09-18T09:48:01;5.00;;;2.73;;
4422;SDS011;2224;49.814;8.650;2023-09-18T09:50:29;4.30;;;2.10;;
4422;SDS011;2224;49.814;8.650;2023-09-18T09:52:55;6.43;;;2.40;;
4422;SDS011;2224;49.814;8.650;2023-09-18T09:57:47;5.57;;;2.10;;
4422;SDS011;2224;49.814;8.650;2023-09-18T10:00:13;6.20;;;2.20;;
4422;SDS011;2224;49.814;8.650;2023-09-18T10:03:02;9.57;;;2.00;;
4422;SDS011;2224;49.814;8.650;2023-09-18T10:05:30;5.57;;;2.17;;
4422;SDS011;2224;49.814;8.650;2023-09-18T10:07:59;5.90;;;2.80;;
4422;SDS011;2224;49.814;8.650;2023-09-18T10:10:31;3.60;;;2.30;;
4422;SDS011;2224;49.814;8.650;2023-09-18T10:13:03;3.57;;;2.43;;
4422;SDS011;2224;49.814;8.650;2023-09-18T10:15:33;7.03;;;1.97;;
4422;SDS011;2224;49.814;8.650;2023-09-18T10:18:03;6.07;;;2.47;;
4422;SDS011;2224;49.814;8.650;2023-09-18T10:20:32;7.57;;;2.20;;
4422;SDS011;2224;49.814;8.650;2023-09-18T10:23:08;4.33;;;2.13;;
4422;SDS011;2224;49.814;8.650;2023-09-18T10:25:42;5.87;;;2.90;;
4422;SDS011;2224;49.814;8.650;2023-09-18T10:28:08;6.60;;;2.47;;
4422;SDS011;2224;49.814;8.650;2023-09-18T10:30:34;13.73;;;2.70;;
4422;SDS011;2224;49.814;8.650;2023-09-18T10:33:00;4.70;;;1.87;;
4422;SDS011;2224;49.814;8.650;2023-09-18T10:35:26;7.10;;;1.97;;
4422;SDS011;2224;49.814;8.650;2023-09-18T10:37:51;4.63;;;1.93;;
4422;SDS011;2224;49.814;8.650;2023-09-18T10:40:19;4.10;;;1.90;;
4422;SDS011;2224;49.814;8.650;2023-09-18T10:42:46;4.60;;;2.20;;
4422;SDS011;2224;49.814;8.650;2023-09-18T10:45:12;2.30;;;1.60;;
4422;SDS011;2224;49.814;8.650;2023-09-18T10:47:42;3.23;;;1.93;;
4422;SDS011;2224;49.814;8.650;2023-09-18T10:50:10;6.33;;;2.00;;
4422;SDS011;2224;49.814;8.650;2023-09-18T10:52:35;4.73;;;2.20;;
4422;SDS011;2224;49.814;8.650;2023-09-18T10:55:01;5.73;;;2.00;;
4422;SDS011;2224;49.814;8.650;2023-09-18T10:57:33;4.17;;;2.40;;
4422;SDS011;2224;49.814;8.650;2023-09-18T10:59:59;3.93;;;2.20;;
4422;SDS011;2224;49.814;8.650;2023-09-18T11:02:25;2.60;;;1.97;;
4422;SDS011;2224;49.814;8.650;2023-09-18T11:04:52;7.23;;;2.10;;
4422;SDS011;2224;49.814;8.650;2023-09-18T11:07:22;4.43;;;1.97;;
4422;SDS011;2224;49.814;8.650;2023-09-18T11:09:49;2.90;;;1.73;;
4422;SDS011;2224;49.814;8.650;2023-09-18T11:12:15;3.90;;;1.90;;
4422;SDS011;2224;49.814;8.650;2023-09-18T11:14:45;8.33;;;1.70;;
4422;SDS011;2224;49.814;8.650;2023-09-18T11:20:16;8.10;;;3.00;;
4422;SDS011;2224;49.814;8.650;2023-09-18T11:22:46;4.13;;;2.27;;
4422;SDS011;2224;49.814;8.650;2023-09-18T11:28:07;3.63;;;1.73;;
4422;SDS011;2224;49.814;8.650;2023-09-18T11:30:37;3.97;;;2.10;;
4422;SDS011;2224;49.814;8.650;2023-09-18T11:33:04;5.37;;;1.93;;
4422;SDS011;2224;49.814;8.650;2023-09-18T11:35:31;3.60;;;1.90;;
4422;SDS011;2224;49.814;8.650;2023-09-18T11:40:34;2.80;;;1.87;;
4422;SDS011;2224;49.814;8.650;2023-09-18T11:45:51;6.27;;;1.97;;
4422;SDS011;2224;49.814;8.650;2023-09-18T11:48:18;6.13;;;1.97;;
4422;SDS011;2224;49.814;8.650;2023-09-18T11:50:44;4.70;;;1.93;;
4422;SDS011;2224;49.814;8.650;2023-09-18T11:53:11;3.63;;;2.10;;
4422;SDS011;2224;49.814;8.650;2023-09-18T11:55:38;3.00;;;2.00;;
4422;SDS011;2224;49.814;8.650;2023-09-18T11:58:04;2.23;;;1.70;;
4422;SDS011;2224;49.814;8.650;2023-09-18T12:00:30;3.70;;;2.10;;
4422;SDS011;2224;49.814;8.650;2023-09-18T12:02:56;4.97;;;2.17;;
4422;SDS011;2224;49.814;8.650;2023-09-18T12:05:23;5.83;;;2.00;;
4422;SDS011;2224;49.814;8.650;2023-09-18T12:07:51;7.27;;;3.20;;
4422;SDS011;2224;49.814;8.650;2023-09-18T12:10:17;3.17;;;1.93;;
4422;SDS011;2224;49.814;8.650;2023-09-18T12:12:48;2.30;;;1.70;;
4422;SDS011;2224;49.814;8.650;2023-09-18T12:15:14;5.43;;;1.83;;
4422;SDS011;2224;49.814;8.650;2023-09-18T12:17:42;3.47;;;2.70;;
4422;SDS011;2224;49.814;8.650;2023-09-18T12:20:14;5.73;;;2.23;;
4422;SDS011;2224;49.814;8.650;2023-09-18T12:22:40;4.20;;;2.40;;
4422;SDS011;2224;49.814;8.650;2023-09-18T12:25:13;3.60;;;2.03;;
4422;SDS011;2224;49.814;8.650;2023-09-18T12:27:40;4.00;;;1.97;;
4422;SDS011;2224;49.814;8.650;2023-09-18T12:30:06;4.00;;;1.97;;
4422;SDS011;2224;49.814;8.650;2023-09-18T12:32:33;3.50;;;2.17;;
4422;SDS011;2224;49.814;8.650;2023-09-18T12:35:02;3.67;;;1.77;;
4422;SDS011;2224;49.814;8.650;2023-09-18T12:37:28;2.93;;;1.87;;
4422;SDS011;2224;49.814;8.650;2023-09-18T12:39:53;4.80;;;1.97;;
4422;SDS011;2224;49.814;8.650;2023-09-18T12:42:19;4.53;;;2.00;;
4422;SDS011;2224;49.814;8.650;2023-09-18T12:44:47;5.90;;;2.10;;
4422;SDS011;2224;49.814;8.650;2023-09-18T12:47:13;10.10;;;2.33;;
4422;SDS011;2224;49.814;8.650;2023-09-18T12:49:39;4.03;;;2.70;;
4422;SDS011;2224;49.814;8.650;2023-09-18T12:52:05;6.60;;;2.23;;
4422;SDS011;2224;49.814;8.650;2023-09-18T12:54:40;2.80;;;2.00;;
4422;SDS011;2224;49.814;8.650;2023-09-18T12:57:07;3.20;;;2.17;;
4422;SDS011;2224;49.814;8.650;2023-09-18T12:59:33;2.70;;;1.77;;
4422;SDS011;2224;49.814;8.650;2023-09-18T13:02:01;4.90;;;2.00;;
4422;SDS011;2224;49.814;8.650;2023-09-18T13:04:29;5.70;;;2.40;;
4422;SDS011;2224;49.814;8.650;2023-09-18T13:07:09;5.03;;;2.00;;
4422;SDS011;2224;49.814;8.650;2023-09-18T13:09:35;5.83;;;2.17;;
4422;SDS011;2224;49.814;8.650;2023-09-18T13:12:02;4.70;;;1.97;;
4422;SDS011;2224;49.814;8.650;2023-09-18T13:14:28;3.93;;;2.27;;
4422;SDS011;2224;49.814;8.650;2023-09-18T13:17:00;3.20;;;2.00;;
4422;SDS011;2224;49.814;8.650;2023-09-18T13:19:25;8.10;;;2.83;;
4422;SDS011;2224;49.814;8.650;2023-09-18T13:21:50;6.23;;;2.03;;
4422;SDS011;2224;49.814;8.650;2023-09-18T13:24:28;3.80;;;2.30;;
4422;SDS011;2224;49.814;8.650;2023-09-18T13:26:55;6.03;;;2.07;;
4422;SDS011;2224;49.814;8.650;2023-09-18T13:29:21;4.50;;;2.20;;
4422;SDS011;2224;49.814;8.650;2023-09-18T13:31:48;3.80;;;1.80;;
4422;SDS011;2224;49.814;8.650;2023-09-18T13:34:13;4.53;;;1.47;;
4422;SDS011;2224;49.814;8.650;2023-09-18T13:36:42;3.67;;;2.10;;
4422;SDS011;2224;49.814;8.650;2023-09-18T13:39:08;4.60;;;1.80;;
4422;SDS011;2224;49.814;8.650;2023-09-18T13:41:33;3.80;;;2.30;;
4422;SDS011;2224;49.814;8.650;2023-09-18T13:43:59;6.60;;;1.97;;
4422;SDS011;2224;49.814;8.650;2023-09-18T13:46:24;5.73;;;2.00;;
4422;SDS011;2224;49.814;8.650;2023-09-18T13:48:49;5.67;;;2.27;;
4422;SDS011;2224;49.814;8.650;2023-09-18T13:51:16;2.60;;;1.60;;
4422;SDS011;2224;49.814;8.650;2023-09-18T13:53:41;4.00;;;2.17;;
4422;SDS011;2224;49.814;8.650;2023-09-18T13:56:07;3.37;;;2.40;;
4422;SDS011;2224;49.814;8.650;2023-09-18T13:58:32;8.30;;;2.63;;
4422;SDS011;2224;49.814;8.650;2023-09-18T14:00:58;5.63;;;1.90;;
4422;SDS011;2224;49.814;8.650;2023-09-18T14:03:24;4.07;;;2.23;;
4422;SDS011;2224;49.814;8.650;2023-09-18T14:05:49;4.20;;;2.20;;
4422;SDS011;2224;49.814;8.650;2023-09-18T14:08:15;3.93;;;1.67;;
4422;SDS011;2224;49.814;8.650;2023-09-18T14:10:42;3.77;;;1.70;;
4422;SDS011;2224;49.814;8.650;2023-09-18T14:13:08;5.00;;;2.23;;
4422;SDS011;2224;49.814;8.650;2023-09-18T14:15:33;4.30;;;1.70;;
4422;SDS011;2224;49.814;8.650;2023-09-18T14:17:58;3.67;;;1.53;;
4422;SDS011;2224;49.814;8.650;2023-09-18T14:20:24;4.43;;;1.80;;
4422;SDS011;2224;49.814;8.650;2023-09-18T14:22:49;2.90;;;1.87;;
4422;SDS011;2224;49.814;8.650;2023-09-18T14:25:15;3.50;;;2.13;;
4422;SDS011;2224;49.814;8.650;2023-09-18T14:27:40;2.77;;;1.60;;
4422;SDS011;2224;49.814;8.650;2023-09-18T14:30:07;11.90;;;2.20;;
4422;SDS011;2224;49.814;8.650;2023-09-18T14:32:33;2.70;;;1.63;;
4422;SDS011;2224;49.814;8.650;2023-09-18T14:35:00;3.67;;;1.80;;
4422;SDS011;2224;49.814;8.650;2023-09-18T14:37:27;3.53;;;1.73;;
4422;SDS011;2224;49.814;8.650;2023-09-18T14:39:53;3.87;;;1.50;;
4422;SDS011;2224;49.814;8.650;2023-09-18T14:42:18;2.77;;;1.60;;
4422;SDS011;2224;49.814;8.650;2023-09-18T14:44:43;6.60;;;1.70;;
4422;SDS011;2224;49.814;8.650;2023-09-18T14:47:10;6.20;;;1.80;;
4422;SDS011;2224;49.814;8.650;2023-09-18T14:49:36;4.33;;;1.43;;
4422;SDS011;2224;49.814;8.650;2023-09-18T14:52:02;6.00;;;1.60;;
4422;SDS011;2224;49.814;8.650;2023-09-18T14:54:28;2.77;;;1.50;;
4422;SDS011;2224;49.814;8.650;2023-09-18T14:56:53;4.90;;;1.70;;
4422;SDS011;2224;49.814;8.650;2023-09-18T14:59:19;5.03;;;1.87;;
4422;SDS011;2224;49.814;8.650;2023-09-18T15:01:44;4.63;;;1.80;;
4422;SDS011;2224;49.814;8.650;2023-09-18T15:04:10;2.10;;;1.47;;
4422;SDS011;2224;49.814;8.650;2023-09-18T15:06:35;4.57;;;2.10;;
4422;SDS011;2224;49.814;8.650;2023-09-18T15:09:01;5.47;;;1.87;;
4422;SDS011;2224;49.814;8.650;2023-09-18T15:11:28;2.33;;;1.40;;
4422;SDS011;2224;49.814;8.650;2023-09-18T15:13:53;4.23;;;1.57;;
4422;SDS011;2224;49.814;8.650;2023-09-18T15:16:18;3.57;;;1.80;;
4422;SDS011;2224;49.814;8.650;2023-09-18T15:18:44;2.87;;;1.70;;
4422;SDS011;2224;49.814;8.650;2023-09-18T15:21:09;1.90;;;1.20;;